»·PEaware :: N5826T KLAS-KSNA

N5826T :: KLAS-KSNA

FLIGHT INFORMATION

Flight Status: Arrived
Operator: Privately registered:
United States
More flights under this callsign
Pilot: Daniel J. (32090)
Aircraft: ECLIPSE 500
(EA50)
More flights by this aircraft type
Origin: KLAS McCarran Intl
United States
Destination: KSNA John Wayne-Orange Co
United States
More flights between these airports :: More routes between these airports
Route: +BOACH8 HEC KAYOH7
File this flight plan on PilotEdge
Remarks:
Altitude:
(Current/Filed)
26,000ft
Speed:
(Current/Filed)
360kts
Departed: 21-Nov-20 09:35 AM
Arrived: 21-Nov-20 10:33 AM
Distance/Time
Traveled:
197nm/0:57
Distance/Time
To Go:
Arrived

Flight Plot

Page will automatically refresh every two minutes.

Flight plan parsing failed; only flown route is shown


Map Options




Map Legend


Flown Route
Filed Route
Departure Airport
Arrival Airport
Navaid (VOR, NDB)
Fix

Horizontal Profiles

Position Reports

Time Latitude Longitude Heading Altitude Ground
Speed
21-Nov-20 09:07 36.081235 -115.170550 89 2167ft 0kts
21-Nov-20 09:08 36.081235 -115.170550 89 2167ft 0kts
21-Nov-20 09:09 36.081235 -115.170550 89 2167ft 0kts
21-Nov-20 09:10 36.081235 -115.170550 89 2167ft 0kts
21-Nov-20 09:11 36.081235 -115.170550 89 2167ft 0kts
21-Nov-20 09:12 36.081235 -115.170550 89 2167ft 0kts
21-Nov-20 09:13 36.081235 -115.170550 89 2167ft 0kts
21-Nov-20 09:14 36.081235 -115.170550 89 2167ft 0kts
21-Nov-20 09:15 36.081235 -115.170550 89 2167ft 0kts
21-Nov-20 09:16 36.081235 -115.170550 89 2167ft 0kts
21-Nov-20 09:17 36.081235 -115.170550 89 2167ft 0kts
21-Nov-20 09:18 36.081235 -115.170550 89 2167ft 0kts
21-Nov-20 09:19 36.081235 -115.170550 89 2167ft 0kts
21-Nov-20 09:20 36.081235 -115.170550 89 2167ft 0kts
21-Nov-20 09:21 36.081235 -115.170550 89 2167ft 0kts
21-Nov-20 09:22 36.081235 -115.170550 89 2167ft 0kts
21-Nov-20 09:23 36.081235 -115.170550 89 2167ft 0kts
21-Nov-20 09:24 36.081235 -115.170550 89 2167ft 0kts
21-Nov-20 09:25 36.081235 -115.170550 89 2167ft 0kts
21-Nov-20 09:26 36.081496 -115.169398 80 2164ft 7kts
21-Nov-20 09:27 36.084779 -115.167352 24 2152ft 18kts
21-Nov-20 09:28 36.088733 -115.165095 25 2135ft 13kts
21-Nov-20 09:29 36.092480 -115.162947 25 2117ft 17kts
21-Nov-20 09:30 36.097433 -115.160111 23 2097ft 17kts
21-Nov-20 09:31 36.099781 -115.157936 70 2085ft 11kts
21-Nov-20 09:32 36.099867 -115.157562 87 2085ft 0kts
21-Nov-20 09:33 36.099867 -115.157562 87 2085ft 0kts
21-Nov-20 09:34 36.096955 -115.157988 205 2091ft 65kts
21-Nov-20 09:35 36.060595 -115.180107 205 3583ft 189kts
21-Nov-20 09:36 36.014519 -115.206425 223 6446ft 184kts
21-Nov-20 09:37 35.986903 -115.266352 240 6988ft 220kts
21-Nov-20 09:38 35.941727 -115.305272 187 8098ft 197kts
21-Nov-20 09:39 35.889888 -115.311226 189 10334ft 187kts
21-Nov-20 09:40 35.836873 -115.312477 179 12098ft 198kts
21-Nov-20 09:41 35.781399 -115.306229 181 13873ft 203kts
21-Nov-20 09:42 35.724350 -115.299764 182 15649ft 209kts
21-Nov-20 09:43 35.670311 -115.305614 235 17600ft 186kts
21-Nov-20 09:44 35.635198 -115.352782 234 19265ft 200kts
21-Nov-20 09:45 35.590677 -115.412761 233 19292ft 267kts
21-Nov-20 09:46 35.537543 -115.484003 232 19289ft 295kts
21-Nov-20 09:47 35.480568 -115.560267 232 19288ft 309kts
21-Nov-20 09:48 35.433152 -115.623115 237 23136ft 200kts
21-Nov-20 09:49 35.397092 -115.671462 237 24845ft 191kts
21-Nov-20 09:50 35.361247 -115.719392 238 26237ft 195kts
21-Nov-20 09:51 35.319640 -115.775095 236 26286ft 247kts
21-Nov-20 09:52 35.269538 -115.841649 235 26274ft 282kts
21-Nov-20 09:53 35.214097 -115.915066 235 26261ft 303kts
21-Nov-20 09:54 35.155810 -115.992127 234 26257ft 314kts
21-Nov-20 09:55 35.095907 -116.071162 234 26273ft 319kts
21-Nov-20 09:56 35.035384 -116.150822 234 26272ft 321kts
21-Nov-20 09:57 34.973202 -116.229610 234 26284ft 323kts
21-Nov-20 09:58 34.912421 -116.309877 234 26287ft 323kts
21-Nov-20 09:59 34.853505 -116.387946 233 25399ft 301kts
21-Nov-20 10:00 34.798034 -116.461170 232 24364ft 291kts
21-Nov-20 10:01 34.743319 -116.528985 232 24277ft 278kts
21-Nov-20 10:02 34.688831 -116.596073 232 24277ft 280kts
21-Nov-20 10:03 34.633960 -116.663452 231 24285ft 282kts
21-Nov-20 10:04 34.579317 -116.730374 231 23551ft 264kts
21-Nov-20 10:05 34.531517 -116.788833 231 21752ft 231kts
21-Nov-20 10:06 34.486604 -116.843251 230 19962ft 230kts
21-Nov-20 10:07 34.440861 -116.898534 230 18188ft 240kts
21-Nov-20 10:08 34.392705 -116.957198 229 16392ft 250kts
21-Nov-20 10:09 34.343164 -117.017631 228 14591ft 256kts
21-Nov-20 10:10 34.292933 -117.078932 227 13041ft 250kts
21-Nov-20 10:11 34.232685 -117.118384 190 13010ft 270kts
21-Nov-20 10:12 34.157197 -117.129176 190 13008ft 275kts
21-Nov-20 10:13 34.095747 -117.173559 227 13008ft 266kts
21-Nov-20 10:14 34.040713 -117.234005 223 13008ft 268kts
21-Nov-20 10:15 33.984177 -117.291829 223 13003ft 256kts
21-Nov-20 10:16 33.931744 -117.344610 222 11971ft 236kts
21-Nov-20 10:17 33.883541 -117.393046 222 10553ft 216kts
21-Nov-20 10:19 33.837899 -117.438968 222 9140ft 213kts
21-Nov-20 10:20 33.793098 -117.484039 222 8020ft 203kts
21-Nov-20 10:21 33.779317 -117.545823 272 8009ft 203kts
21-Nov-20 10:22 33.800921 -117.604911 311 7433ft 199kts
21-Nov-20 10:23 33.837781 -117.654752 311 6062ft 196kts
21-Nov-20 10:24 33.872080 -117.701740 311 4597ft 165kts
21-Nov-20 10:25 33.889699 -117.741021 241 3090ft 138kts
21-Nov-20 10:26 33.857734 -117.753532 194 2994ft 122kts
21-Nov-20 10:27 33.826538 -117.772892 208 2994ft 129kts
21-Nov-20 10:28 33.793053 -117.794249 208 2532ft 140kts
21-Nov-20 10:29 33.760518 -117.814951 208 1836ft 121kts
21-Nov-20 10:30 33.732799 -117.832575 208 1219ft 106kts
21-Nov-20 10:31 33.706967 -117.849032 206 639ft 104kts
21-Nov-20 10:32 33.681991 -117.864815 207 106ft 98kts
21-Nov-20 10:32 33.670646 -117.872021 206 59ft 16kts
21-Nov-20 10:34 33.669224 -117.871696 126 59ft 0kts
21-Nov-20 10:34 33.669628 -117.870417 40 59ft 9kts
21-Nov-20 10:35 33.671455 -117.867997 103 59ft 5kts
21-Nov-20 10:37 33.671509 -117.867364 25 59ft 0kts
21-Nov-20 10:37 33.671509 -117.867364 25 59ft 0kts

Navigation Log

Ident Type
Flight plan parsing failed, navigation log unavailable